sensor_id;sensor_type;location;lat;lon;timestamp;P1;durP1;ratioP1;P2;durP2;ratioP2
59998;SDS011;45859;51.378;6.736;2023-03-30T00:01:17;6.57;;;3.07;;
59998;SDS011;45859;51.378;6.736;2023-03-30T00:03:44;5.23;;;3.40;;
59998;SDS011;45859;51.378;6.736;2023-03-30T00:06:11;5.90;;;3.50;;
59998;SDS011;45859;51.378;6.736;2023-03-30T00:08:45;5.63;;;3.53;;
59998;SDS011;45859;51.378;6.736;2023-03-30T00:11:12;5.80;;;3.30;;
59998;SDS011;45859;51.378;6.736;2023-03-30T00:13:40;7.10;;;4.03;;
59998;SDS011;45859;51.378;6.736;2023-03-30T00:16:08;7.83;;;4.07;;
59998;SDS011;45859;51.378;6.736;2023-03-30T00:18:36;8.40;;;3.67;;
59998;SDS011;45859;51.378;6.736;2023-03-30T00:21:04;7.93;;;3.47;;
59998;SDS011;45859;51.378;6.736;2023-03-30T00:23:31;6.13;;;3.33;;
59998;SDS011;45859;51.378;6.736;2023-03-30T00:25:57;6.80;;;3.83;;
59998;SDS011;45859;51.378;6.736;2023-03-30T00:28:23;7.03;;;3.63;;
59998;SDS011;45859;51.378;6.736;2023-03-30T00:30:50;5.93;;;3.70;;
59998;SDS011;45859;51.378;6.736;2023-03-30T00:33:18;5.23;;;3.40;;
59998;SDS011;45859;51.378;6.736;2023-03-30T00:35:50;8.17;;;3.50;;
59998;SDS011;45859;51.378;6.736;2023-03-30T00:38:17;5.90;;;3.50;;
59998;SDS011;45859;51.378;6.736;2023-03-30T00:40:48;5.60;;;3.07;;
59998;SDS011;45859;51.378;6.736;2023-03-30T00:43:19;6.43;;;3.10;;
59998;SDS011;45859;51.378;6.736;2023-03-30T00:45:45;5.60;;;3.17;;
59998;SDS011;45859;51.378;6.736;2023-03-30T00:48:12;8.03;;;3.40;;
59998;SDS011;45859;51.378;6.736;2023-03-30T00:50:49;5.53;;;2.90;;
59998;SDS011;45859;51.378;6.736;2023-03-30T00:53:29;5.07;;;3.00;;
59998;SDS011;45859;51.378;6.736;2023-03-30T00:55:58;6.57;;;3.30;;
59998;SDS011;45859;51.378;6.736;2023-03-30T00:58:25;6.23;;;3.17;;
59998;SDS011;45859;51.378;6.736;2023-03-30T01:00:52;5.37;;;3.10;;
59998;SDS011;45859;51.378;6.736;2023-03-30T01:05:45;7.17;;;3.10;;
59998;SDS011;45859;51.378;6.736;2023-03-30T01:08:12;6.90;;;3.50;;
59998;SDS011;45859;51.378;6.736;2023-03-30T01:10:40;5.70;;;3.00;;
59998;SDS011;45859;51.378;6.736;2023-03-30T01:13:07;5.63;;;3.33;;
59998;SDS011;45859;51.378;6.736;2023-03-30T01:15:33;6.07;;;2.93;;
59998;SDS011;45859;51.378;6.736;2023-03-30T01:23:20;8.07;;;3.77;;
59998;SDS011;45859;51.378;6.736;2023-03-30T01:26:24;7.37;;;3.17;;
59998;SDS011;45859;51.378;6.736;2023-03-30T01:29:12;7.57;;;3.20;;
59998;SDS011;45859;51.378;6.736;2023-03-30T01:36:44;5.63;;;2.67;;
59998;SDS011;45859;51.378;6.736;2023-03-30T01:44:35;5.37;;;2.60;;
59998;SDS011;45859;51.378;6.736;2023-03-30T01:52:55;6.60;;;2.30;;
59998;SDS011;45859;51.378;6.736;2023-03-30T02:00:47;7.97;;;2.40;;
59998;SDS011;45859;51.378;6.736;2023-03-30T02:03:22;6.07;;;2.33;;
59998;SDS011;45859;51.378;6.736;2023-03-30T02:05:55;6.18;;;2.30;;
59998;SDS011;45859;51.378;6.736;2023-03-30T02:08:42;4.73;;;2.33;;
59998;SDS011;45859;51.378;6.736;2023-03-30T02:11:13;4.90;;;2.40;;
59998;SDS011;45859;51.378;6.736;2023-03-30T02:13:39;5.03;;;2.40;;
59998;SDS011;45859;51.378;6.736;2023-03-30T02:16:18;4.27;;;2.20;;
59998;SDS011;45859;51.378;6.736;2023-03-30T02:18:48;5.77;;;2.27;;
59998;SDS011;45859;51.378;6.736;2023-03-30T02:21:14;6.87;;;2.70;;
59998;SDS011;45859;51.378;6.736;2023-03-30T02:23:41;4.47;;;2.10;;
59998;SDS011;45859;51.378;6.736;2023-03-30T02:26:10;5.72;;;2.20;;
59998;SDS011;45859;51.378;6.736;2023-03-30T02:28:37;6.67;;;2.53;;
59998;SDS011;45859;51.378;6.736;2023-03-30T02:31:03;4.60;;;1.87;;
59998;SDS011;45859;51.378;6.736;2023-03-30T02:53:07;5.83;;;2.20;;
59998;SDS011;45859;51.378;6.736;2023-03-30T02:58:50;6.13;;;2.20;;
59998;SDS011;45859;51.378;6.736;2023-03-30T03:01:10;7.50;;;2.23;;
59998;SDS011;45859;51.378;6.736;2023-03-30T03:03:37;6.33;;;2.07;;
59998;SDS011;45859;51.378;6.736;2023-03-30T03:06:08;6.17;;;2.10;;
59998;SDS011;45859;51.378;6.736;2023-03-30T03:08:36;5.17;;;2.17;;
59998;SDS011;45859;51.378;6.736;2023-03-30T03:11:04;6.40;;;2.00;;
59998;SDS011;45859;51.378;6.736;2023-03-30T03:13:31;6.70;;;2.10;;
59998;SDS011;45859;51.378;6.736;2023-03-30T03:15:57;6.87;;;1.90;;
59998;SDS011;45859;51.378;6.736;2023-03-30T03:18:25;4.83;;;2.00;;
59998;SDS011;45859;51.378;6.736;2023-03-30T03:20:50;5.80;;;1.87;;
59998;SDS011;45859;51.378;6.736;2023-03-30T03:23:16;8.03;;;2.13;;
59998;SDS011;45859;51.378;6.736;2023-03-30T03:25:42;4.60;;;2.30;;
59998;SDS011;45859;51.378;6.736;2023-03-30T03:28:07;8.23;;;2.30;;
59998;SDS011;45859;51.378;6.736;2023-03-30T03:30:33;8.50;;;2.27;;
59998;SDS011;45859;51.378;6.736;2023-03-30T03:32:59;6.13;;;2.27;;
59998;SDS011;45859;51.378;6.736;2023-03-30T03:35:25;4.23;;;1.90;;
59998;SDS011;45859;51.378;6.736;2023-03-30T03:37:51;7.13;;;2.00;;
59998;SDS011;45859;51.378;6.736;2023-03-30T03:40:17;5.07;;;1.93;;
59998;SDS011;45859;51.378;6.736;2023-03-30T03:42:43;6.80;;;2.00;;
59998;SDS011;45859;51.378;6.736;2023-03-30T03:45:08;6.43;;;1.80;;
59998;SDS011;45859;51.378;6.736;2023-03-30T03:47:35;5.40;;;1.80;;
59998;SDS011;45859;51.378;6.736;2023-03-30T03:50:01;7.37;;;2.00;;
59998;SDS011;45859;51.378;6.736;2023-03-30T03:52:30;6.22;;;2.25;;
59998;SDS011;45859;51.378;6.736;2023-03-30T03:54:56;5.30;;;1.70;;
59998;SDS011;45859;51.378;6.736;2023-03-30T03:57:22;3.90;;;1.47;;
59998;SDS011;45859;51.378;6.736;2023-03-30T03:59:48;5.20;;;1.83;;
59998;SDS011;45859;51.378;6.736;2023-03-30T04:02:15;6.43;;;1.90;;
59998;SDS011;45859;51.378;6.736;2023-03-30T04:04:41;7.03;;;1.70;;
59998;SDS011;45859;51.378;6.736;2023-03-30T04:07:06;7.93;;;1.83;;
59998;SDS011;45859;51.378;6.736;2023-03-30T04:09:32;8.63;;;2.00;;
59998;SDS011;45859;51.378;6.736;2023-03-30T04:11:58;8.50;;;1.90;;
59998;SDS011;45859;51.378;6.736;2023-03-30T04:14:23;4.33;;;1.77;;
59998;SDS011;45859;51.378;6.736;2023-03-30T04:16:49;7.73;;;2.00;;
59998;SDS011;45859;51.378;6.736;2023-03-30T04:19:15;4.13;;;1.80;;
59998;SDS011;45859;51.378;6.736;2023-03-30T04:21:41;6.30;;;2.27;;
59998;SDS011;45859;51.378;6.736;2023-03-30T04:24:11;7.77;;;2.40;;
59998;SDS011;45859;51.378;6.736;2023-03-30T04:26:37;7.13;;;2.13;;
59998;SDS011;45859;51.378;6.736;2023-03-30T04:29:05;7.77;;;3.20;;
59998;SDS011;45859;51.378;6.736;2023-03-30T04:31:32;5.60;;;3.00;;
59998;SDS011;45859;51.378;6.736;2023-03-30T04:33:58;8.57;;;2.57;;
59998;SDS011;45859;51.378;6.736;2023-03-30T04:36:27;8.00;;;2.70;;
59998;SDS011;45859;51.378;6.736;2023-03-30T04:38:53;5.83;;;2.20;;
59998;SDS011;45859;51.378;6.736;2023-03-30T04:41:31;5.97;;;2.67;;
59998;SDS011;45859;51.378;6.736;2023-03-30T04:44:04;8.77;;;2.70;;
59998;SDS011;45859;51.378;6.736;2023-03-30T04:46:31;6.77;;;2.50;;
59998;SDS011;45859;51.378;6.736;2023-03-30T04:48:57;5.97;;;2.27;;
59998;SDS011;45859;51.378;6.736;2023-03-30T04:51:23;6.00;;;2.07;;
59998;SDS011;45859;51.378;6.736;2023-03-30T04:53:49;5.43;;;1.80;;
59998;SDS011;45859;51.378;6.736;2023-03-30T04:56:15;7.73;;;1.83;;
59998;SDS011;45859;51.378;6.736;2023-03-30T04:58:41;6.90;;;1.70;;
59998;SDS011;45859;51.378;6.736;2023-03-30T05:01:07;5.63;;;2.00;;
59998;SDS011;45859;51.378;6.736;2023-03-30T05:03:34;7.73;;;1.80;;
59998;SDS011;45859;51.378;6.736;2023-03-30T05:06:00;7.70;;;2.30;;
59998;SDS011;45859;51.378;6.736;2023-03-30T05:08:26;8.23;;;2.60;;
59998;SDS011;45859;51.378;6.736;2023-03-30T05:10:51;7.77;;;2.87;;
59998;SDS011;45859;51.378;6.736;2023-03-30T05:13:17;9.43;;;3.40;;
59998;SDS011;45859;51.378;6.736;2023-03-30T05:15:43;7.60;;;2.40;;
59998;SDS011;45859;51.378;6.736;2023-03-30T05:18:08;5.73;;;2.17;;
59998;SDS011;45859;51.378;6.736;2023-03-30T05:20:35;8.10;;;3.10;;
59998;SDS011;45859;51.378;6.736;2023-03-30T05:23:01;8.93;;;2.93;;
59998;SDS011;45859;51.378;6.736;2023-03-30T05:25:26;8.03;;;2.77;;
59998;SDS011;45859;51.378;6.736;2023-03-30T05:27:52;8.50;;;2.60;;
59998;SDS011;45859;51.378;6.736;2023-03-30T05:30:18;7.03;;;2.63;;
59998;SDS011;45859;51.378;6.736;2023-03-30T05:32:43;8.77;;;3.10;;
59998;SDS011;45859;51.378;6.736;2023-03-30T05:35:09;8.90;;;2.53;;
59998;SDS011;45859;51.378;6.736;2023-03-30T05:37:36;6.23;;;2.53;;
59998;SDS011;45859;51.378;6.736;2023-03-30T05:40:02;9.93;;;3.00;;
59998;SDS011;45859;51.378;6.736;2023-03-30T05:42:33;9.97;;;3.20;;
59998;SDS011;45859;51.378;6.736;2023-03-30T05:45:00;8.50;;;3.10;;
59998;SDS011;45859;51.378;6.736;2023-03-30T05:47:26;6.47;;;2.50;;
59998;SDS011;45859;51.378;6.736;2023-03-30T05:49:52;6.87;;;2.30;;
59998;SDS011;45859;51.378;6.736;2023-03-30T05:52:18;6.70;;;2.33;;
59998;SDS011;45859;51.378;6.736;2023-03-30T05:54:45;9.47;;;2.90;;
59998;SDS011;45859;51.378;6.736;2023-03-30T05:57:11;7.07;;;2.67;;
59998;SDS011;45859;51.378;6.736;2023-03-30T05:59:37;5.57;;;2.40;;
59998;SDS011;45859;51.378;6.736;2023-03-30T06:02:03;7.20;;;2.60;;
59998;SDS011;45859;51.378;6.736;2023-03-30T06:04:31;6.53;;;2.47;;
59998;SDS011;45859;51.378;6.736;2023-03-30T06:06:57;7.97;;;2.47;;
59998;SDS011;45859;51.378;6.736;2023-03-30T06:09:23;4.90;;;2.27;;
59998;SDS011;45859;51.378;6.736;2023-03-30T06:11:50;7.03;;;2.47;;
59998;SDS011;45859;51.378;6.736;2023-03-30T06:14:16;4.37;;;2.00;;
59998;SDS011;45859;51.378;6.736;2023-03-30T06:16:42;9.43;;;2.57;;
59998;SDS011;45859;51.378;6.736;2023-03-30T06:19:08;4.13;;;1.67;;
59998;SDS011;45859;51.378;6.736;2023-03-30T06:21:34;4.50;;;1.53;;
59998;SDS011;45859;51.378;6.736;2023-03-30T06:23:59;5.03;;;1.73;;
59998;SDS011;45859;51.378;6.736;2023-03-30T06:26:25;4.33;;;1.60;;
59998;SDS011;45859;51.378;6.736;2023-03-30T06:28:51;6.00;;;1.90;;
59998;SDS011;45859;51.378;6.736;2023-03-30T06:31:17;3.80;;;1.50;;
59998;SDS011;45859;51.378;6.736;2023-03-30T06:33:43;3.73;;;1.43;;
59998;SDS011;45859;51.378;6.736;2023-03-30T06:36:12;4.77;;;1.50;;
59998;SDS011;45859;51.378;6.736;2023-03-30T06:38:38;6.40;;;1.80;;
59998;SDS011;45859;51.378;6.736;2023-03-30T06:41:05;5.00;;;1.67;;
59998;SDS011;45859;51.378;6.736;2023-03-30T06:43:33;2.83;;;1.57;;
59998;SDS011;45859;51.378;6.736;2023-03-30T06:46:00;5.37;;;1.80;;
59998;SDS011;45859;51.378;6.736;2023-03-30T06:48:26;3.93;;;1.77;;
59998;SDS011;45859;51.378;6.736;2023-03-30T06:50:52;7.33;;;2.10;;
59998;SDS011;45859;51.378;6.736;2023-03-30T06:53:19;5.27;;;1.93;;
59998;SDS011;45859;51.378;6.736;2023-03-30T06:55:56;2.80;;;1.60;;
59998;SDS011;45859;51.378;6.736;2023-03-30T06:58:23;3.47;;;1.90;;
59998;SDS011;45859;51.378;6.736;2023-03-30T07:00:49;9.23;;;2.27;;
59998;SDS011;45859;51.378;6.736;2023-03-30T07:03:16;3.83;;;1.90;;
59998;SDS011;45859;51.378;6.736;2023-03-30T07:05:50;6.40;;;2.50;;
59998;SDS011;45859;51.378;6.736;2023-03-30T07:08:17;7.93;;;2.63;;
59998;SDS011;45859;51.378;6.736;2023-03-30T07:10:44;9.23;;;2.77;;
59998;SDS011;45859;51.378;6.736;2023-03-30T07:13:11;7.87;;;3.03;;
59998;SDS011;45859;51.378;6.736;2023-03-30T07:15:37;6.87;;;2.70;;
59998;SDS011;45859;51.378;6.736;2023-03-30T07:18:03;6.07;;;2.63;;
59998;SDS011;45859;51.378;6.736;2023-03-30T07:20:29;14.97;;;4.83;;
59998;SDS011;45859;51.378;6.736;2023-03-30T07:22:55;11.23;;;3.77;;
59998;SDS011;45859;51.378;6.736;2023-03-30T07:25:20;16.83;;;6.77;;
59998;SDS011;45859;51.378;6.736;2023-03-30T07:27:46;25.38;;;8.45;;
59998;SDS011;45859;51.378;6.736;2023-03-30T07:30:12;15.15;;;5.75;;
59998;SDS011;45859;51.378;6.736;2023-03-30T07:32:38;15.47;;;5.40;;
59998;SDS011;45859;51.378;6.736;2023-03-30T07:35:05;19.57;;;5.27;;
59998;SDS011;45859;51.378;6.736;2023-03-30T07:37:32;10.52;;;3.17;;
59998;SDS011;45859;51.378;6.736;2023-03-30T07:39:59;17.03;;;5.43;;
59998;SDS011;45859;51.378;6.736;2023-03-30T07:42:25;14.13;;;7.30;;
59998;SDS011;45859;51.378;6.736;2023-03-30T07:44:50;12.43;;;4.90;;
59998;SDS011;45859;51.378;6.736;2023-03-30T07:47:16;8.37;;;3.73;;
59998;SDS011;45859;51.378;6.736;2023-03-30T07:49:42;5.03;;;2.67;;
59998;SDS011;45859;51.378;6.736;2023-03-30T07:52:07;6.17;;;2.93;;
59998;SDS011;45859;51.378;6.736;2023-03-30T07:54:33;12.10;;;5.50;;
59998;SDS011;45859;51.378;6.736;2023-03-30T07:56:59;13.57;;;7.20;;
59998;SDS011;45859;51.378;6.736;2023-03-30T07:59:25;17.43;;;7.97;;
59998;SDS011;45859;51.378;6.736;2023-03-30T08:01:51;16.97;;;7.03;;
59998;SDS011;45859;51.378;6.736;2023-03-30T08:04:18;13.33;;;5.70;;
59998;SDS011;45859;51.378;6.736;2023-03-30T08:06:44;14.53;;;5.67;;
59998;SDS011;45859;51.378;6.736;2023-03-30T08:09:11;14.63;;;5.50;;
59998;SDS011;45859;51.378;6.736;2023-03-30T08:11:37;13.77;;;5.17;;
59998;SDS011;45859;51.378;6.736;2023-03-30T08:14:03;10.37;;;4.60;;
59998;SDS011;45859;51.378;6.736;2023-03-30T08:16:29;15.03;;;3.93;;
59998;SDS011;45859;51.378;6.736;2023-03-30T08:18:55;11.20;;;4.30;;
59998;SDS011;45859;51.378;6.736;2023-03-30T08:21:21;18.47;;;5.87;;
59998;SDS011;45859;51.378;6.736;2023-03-30T08:23:50;15.47;;;3.97;;
59998;SDS011;45859;51.378;6.736;2023-03-30T08:26:16;24.40;;;9.43;;
59998;SDS011;45859;51.378;6.736;2023-03-30T08:28:42;18.90;;;7.10;;
59998;SDS011;45859;51.378;6.736;2023-03-30T08:31:08;15.02;;;4.68;;
59998;SDS011;45859;51.378;6.736;2023-03-30T08:33:36;9.77;;;4.33;;
59998;SDS011;45859;51.378;6.736;2023-03-30T08:36:03;10.80;;;4.75;;
59998;SDS011;45859;51.378;6.736;2023-03-30T08:38:29;15.05;;;5.22;;
59998;SDS011;45859;51.378;6.736;2023-03-30T08:40:55;9.68;;;4.60;;
59998;SDS011;45859;51.378;6.736;2023-03-30T08:43:30;16.85;;;5.22;;
59998;SDS011;45859;51.378;6.736;2023-03-30T08:46:00;10.07;;;3.60;;
59998;SDS011;45859;51.378;6.736;2023-03-30T08:48:29;11.15;;;3.55;;
59998;SDS011;45859;51.378;6.736;2023-03-30T08:51:04;9.85;;;3.97;;
59998;SDS011;45859;51.378;6.736;2023-03-30T08:53:44;15.27;;;5.28;;
59998;SDS011;45859;51.378;6.736;2023-03-30T08:56:21;13.45;;;4.43;;
59998;SDS011;45859;51.378;6.736;2023-03-30T08:59:01;15.77;;;3.33;;
59998;SDS011;45859;51.378;6.736;2023-03-30T09:02:11;15.23;;;4.15;;
59998;SDS011;45859;51.378;6.736;2023-03-30T09:10:11;9.93;;;4.32;;
59998;SDS011;45859;51.378;6.736;2023-03-30T09:20:46;12.00;;;4.22;;
59998;SDS011;45859;51.378;6.736;2023-03-30T09:23:15;17.05;;;5.63;;
59998;SDS011;45859;51.378;6.736;2023-03-30T09:25:47;12.98;;;4.40;;
59998;SDS011;45859;51.378;6.736;2023-03-30T09:28:29;16.42;;;3.60;;
59998;SDS011;45859;51.378;6.736;2023-03-30T09:36:25;16.08;;;3.72;;
59998;SDS011;45859;51.378;6.736;2023-03-30T09:38:55;15.90;;;3.40;;
59998;SDS011;45859;51.378;6.736;2023-03-30T09:44:32;12.82;;;2.70;;
59998;SDS011;45859;51.378;6.736;2023-03-30T09:47:01;8.50;;;2.00;;
59998;SDS011;45859;51.378;6.736;2023-03-30T09:49:37;8.63;;;1.98;;
59998;SDS011;45859;51.378;6.736;2023-03-30T09:52:04;7.90;;;2.33;;
59998;SDS011;45859;51.378;6.736;2023-03-30T09:54:37;13.52;;;2.85;;
59998;SDS011;45859;51.378;6.736;2023-03-30T09:57:06;11.80;;;2.90;;
59998;SDS011;45859;51.378;6.736;2023-03-30T09:59:53;20.38;;;8.25;;
59998;SDS011;45859;51.378;6.736;2023-03-30T10:02:20;15.15;;;5.93;;
59998;SDS011;45859;51.378;6.736;2023-03-30T10:07:26;16.00;;;5.15;;
59998;SDS011;45859;51.378;6.736;2023-03-30T10:12:50;14.27;;;3.73;;
59998;SDS011;45859;51.378;6.736;2023-03-30T10:15:20;14.43;;;4.38;;
59998;SDS011;45859;51.378;6.736;2023-03-30T10:17:48;20.35;;;5.80;;
59998;SDS011;45859;51.378;6.736;2023-03-30T10:22:59;8.63;;;2.87;;
59998;SDS011;45859;51.378;6.736;2023-03-30T10:25:31;10.82;;;2.80;;
59998;SDS011;45859;51.378;6.736;2023-03-30T10:28:02;9.13;;;2.30;;
59998;SDS011;45859;51.378;6.736;2023-03-30T10:30:28;6.93;;;2.72;;
59998;SDS011;45859;51.378;6.736;2023-03-30T10:32:57;8.23;;;2.30;;
59998;SDS011;45859;51.378;6.736;2023-03-30T10:35:26;8.32;;;2.83;;
59998;SDS011;45859;51.378;6.736;2023-03-30T10:38:02;15.17;;;4.70;;
59998;SDS011;45859;51.378;6.736;2023-03-30T10:40:31;22.02;;;7.32;;
59998;SDS011;45859;51.378;6.736;2023-03-30T10:43:01;21.75;;;6.68;;
59998;SDS011;45859;51.378;6.736;2023-03-30T10:45:31;17.17;;;5.95;;
59998;SDS011;45859;51.378;6.736;2023-03-30T10:53:45;17.88;;;5.80;;
59998;SDS011;45859;51.378;6.736;2023-03-30T10:58:51;15.63;;;4.13;;
59998;SDS011;45859;51.378;6.736;2023-03-30T11:04:27;14.95;;;4.10;;
59998;SDS011;45859;51.378;6.736;2023-03-30T11:07:09;10.88;;;3.33;;
59998;SDS011;45859;51.378;6.736;2023-03-30T11:09:49;7.90;;;3.00;;
59998;SDS011;45859;51.378;6.736;2023-03-30T11:12:18;12.15;;;3.45;;
59998;SDS011;45859;51.378;6.736;2023-03-30T11:17:33;15.77;;;4.22;;
59998;SDS011;45859;51.378;6.736;2023-03-30T11:20:17;18.55;;;8.23;;
59998;SDS011;45859;51.378;6.736;2023-03-30T11:22:57;26.48;;;12.15;;
59998;SDS011;45859;51.378;6.736;2023-03-30T11:25:32;16.70;;;5.93;;
59998;SDS011;45859;51.378;6.736;2023-03-30T11:30:36;10.82;;;4.00;;
59998;SDS011;45859;51.378;6.736;2023-03-30T11:35:39;9.07;;;3.05;;
59998;SDS011;45859;51.378;6.736;2023-03-30T11:38:23;9.30;;;2.95;;
59998;SDS011;45859;51.378;6.736;2023-03-30T11:40:55;10.52;;;3.78;;
59998;SDS011;45859;51.378;6.736;2023-03-30T11:43:28;20.25;;;6.72;;
59998;SDS011;45859;51.378;6.736;2023-03-30T11:46:02;12.40;;;4.10;;
59998;SDS011;45859;51.378;6.736;2023-03-30T11:57:23;12.27;;;2.70;;
59998;SDS011;45859;51.378;6.736;2023-03-30T12:00:29;18.17;;;5.15;;
59998;SDS011;45859;51.378;6.736;2023-03-30T12:05:39;11.52;;;3.25;;
59998;SDS011;45859;51.378;6.736;2023-03-30T12:08:29;8.48;;;2.92;;
59998;SDS011;45859;51.378;6.736;2023-03-30T12:13:51;12.60;;;2.80;;
59998;SDS011;45859;51.378;6.736;2023-03-30T12:16:28;12.93;;;2.50;;
59998;SDS011;45859;51.378;6.736;2023-03-30T12:19:15;8.75;;;3.00;;
59998;SDS011;45859;51.378;6.736;2023-03-30T12:21:57;12.68;;;3.28;;
59998;SDS011;45859;51.378;6.736;2023-03-30T12:24:32;8.88;;;2.08;;
59998;SDS011;45859;51.378;6.736;2023-03-30T12:27:04;14.43;;;2.17;;
59998;SDS011;45859;51.378;6.736;2023-03-30T12:29:43;7.80;;;1.87;;
59998;SDS011;45859;51.378;6.736;2023-03-30T12:32:24;8.53;;;1.90;;
59998;SDS011;45859;51.378;6.736;2023-03-30T12:34:51;4.88;;;1.75;;
59998;SDS011;45859;51.378;6.736;2023-03-30T12:37:26;10.17;;;2.50;;
59998;SDS011;45859;51.378;6.736;2023-03-30T12:42:50;13.73;;;4.53;;
59998;SDS011;45859;51.378;6.736;2023-03-30T12:45:34;12.63;;;5.50;;
59998;SDS011;45859;51.378;6.736;2023-03-30T12:50:52;20.63;;;9.50;;
59998;SDS011;45859;51.378;6.736;2023-03-30T12:53:50;30.50;;;12.90;;
59998;SDS011;45859;51.378;6.736;2023-03-30T13:02:02;7.47;;;2.60;;
59998;SDS011;45859;51.378;6.736;2023-03-30T13:04:54;8.15;;;2.80;;
59998;SDS011;45859;51.378;6.736;2023-03-30T13:07:22;13.57;;;4.30;;
59998;SDS011;45859;51.378;6.736;2023-03-30T13:10:03;6.90;;;3.40;;
59998;SDS011;45859;51.378;6.736;2023-03-30T13:12:58;21.83;;;10.37;;
59998;SDS011;45859;51.378;6.736;2023-03-30T13:15:39;17.57;;;7.73;;
59998;SDS011;45859;51.378;6.736;2023-03-30T13:21:22;10.20;;;3.10;;
59998;SDS011;45859;51.378;6.736;2023-03-30T13:23:30;6.67;;;4.27;;
59998;SDS011;45859;51.378;6.736;2023-03-30T13:28:53;10.33;;;3.20;;
59998;SDS011;45859;51.378;6.736;2023-03-30T13:31:35;8.13;;;2.70;;
59998;SDS011;45859;51.378;6.736;2023-03-30T13:36:59;9.53;;;2.67;;
59998;SDS011;45859;51.378;6.736;2023-03-30T13:50:12;10.63;;;2.83;;
59998;SDS011;45859;51.378;6.736;2023-03-30T13:52:53;7.90;;;2.20;;
59998;SDS011;45859;51.378;6.736;2023-03-30T13:55:31;9.43;;;2.20;;
59998;SDS011;45859;51.378;6.736;2023-03-30T13:58:02;9.80;;;3.65;;
59998;SDS011;45859;51.378;6.736;2023-03-30T14:00:42;12.07;;;3.23;;
59998;SDS011;45859;51.378;6.736;2023-03-30T14:06:19;15.52;;;4.10;;
59998;SDS011;45859;51.378;6.736;2023-03-30T14:08:52;15.00;;;5.38;;
59998;SDS011;45859;51.378;6.736;2023-03-30T14:11:23;11.30;;;3.10;;
59998;SDS011;45859;51.378;6.736;2023-03-30T14:13:56;9.83;;;2.37;;
59998;SDS011;45859;51.378;6.736;2023-03-30T14:16:23;8.57;;;2.70;;
59998;SDS011;45859;51.378;6.736;2023-03-30T14:18:51;9.60;;;2.83;;
59998;SDS011;45859;51.378;6.736;2023-03-30T14:21:38;9.15;;;2.80;;
59998;SDS011;45859;51.378;6.736;2023-03-30T14:24:09;12.80;;;3.72;;
59998;SDS011;45859;51.378;6.736;2023-03-30T14:26:46;13.02;;;3.85;;
59998;SDS011;45859;51.378;6.736;2023-03-30T14:29:15;13.65;;;3.65;;
59998;SDS011;45859;51.378;6.736;2023-03-30T14:31:43;14.13;;;4.63;;
59998;SDS011;45859;51.378;6.736;2023-03-30T14:34:29;14.80;;;5.00;;
59998;SDS011;45859;51.378;6.736;2023-03-30T14:37:00;10.45;;;2.65;;
59998;SDS011;45859;51.378;6.736;2023-03-30T14:39:32;8.05;;;2.17;;
59998;SDS011;45859;51.378;6.736;2023-03-30T14:42:08;13.52;;;3.30;;
59998;SDS011;45859;51.378;6.736;2023-03-30T14:44:41;17.58;;;4.38;;
59998;SDS011;45859;51.378;6.736;2023-03-30T14:47:07;11.82;;;3.00;;
59998;SDS011;45859;51.378;6.736;2023-03-30T14:49:33;11.95;;;2.90;;
59998;SDS011;45859;51.378;6.736;2023-03-30T14:54:34;14.15;;;4.70;;
59998;SDS011;45859;51.378;6.736;2023-03-30T14:57:01;17.27;;;4.63;;
59998;SDS011;45859;51.378;6.736;2023-03-30T14:59:31;18.40;;;4.35;;
59998;SDS011;45859;51.378;6.736;2023-03-30T15:01:59;12.82;;;4.00;;
59998;SDS011;45859;51.378;6.736;2023-03-30T15:04:28;13.85;;;3.42;;
59998;SDS011;45859;51.378;6.736;2023-03-30T15:06:57;11.95;;;3.17;;
59998;SDS011;45859;51.378;6.736;2023-03-30T15:09:24;18.98;;;4.93;;
59998;SDS011;45859;51.378;6.736;2023-03-30T15:11:51;16.08;;;4.30;;
59998;SDS011;45859;51.378;6.736;2023-03-30T15:14:23;16.17;;;5.65;;
59998;SDS011;45859;51.378;6.736;2023-03-30T15:16:53;22.98;;;6.85;;
59998;SDS011;45859;51.378;6.736;2023-03-30T15:21:52;15.27;;;5.00;;
59998;SDS011;45859;51.378;6.736;2023-03-30T15:24:22;15.18;;;3.25;;
59998;SDS011;45859;51.378;6.736;2023-03-30T15:26:51;16.38;;;3.50;;
59998;SDS011;45859;51.378;6.736;2023-03-30T15:29:19;11.37;;;2.53;;
59998;SDS011;45859;51.378;6.736;2023-03-30T15:31:56;13.23;;;3.40;;
59998;SDS011;45859;51.378;6.736;2023-03-30T15:34:24;16.63;;;5.03;;
59998;SDS011;45859;51.378;6.736;2023-03-30T15:36:52;11.43;;;3.47;;
59998;SDS011;45859;51.378;6.736;2023-03-30T15:39:29;11.55;;;4.25;;
59998;SDS011;45859;51.378;6.736;2023-03-30T15:44:34;14.07;;;5.07;;
59998;SDS011;45859;51.378;6.736;2023-03-30T15:47:02;12.03;;;4.10;;
59998;SDS011;45859;51.378;6.736;2023-03-30T15:49:40;12.90;;;4.80;;
59998;SDS011;45859;51.378;6.736;2023-03-30T15:52:10;17.70;;;5.53;;
59998;SDS011;45859;51.378;6.736;2023-03-30T15:54:54;15.20;;;4.77;;
59998;SDS011;45859;51.378;6.736;2023-03-30T15:57:26;16.43;;;5.57;;
59998;SDS011;45859;51.378;6.736;2023-03-30T15:59:54;22.23;;;8.63;;
59998;SDS011;45859;51.378;6.736;2023-03-30T16:05:00;12.23;;;4.40;;
59998;SDS011;45859;51.378;6.736;2023-03-30T16:07:26;11.80;;;4.60;;
59998;SDS011;45859;51.378;6.736;2023-03-30T16:09:53;10.80;;;4.40;;
59998;SDS011;45859;51.378;6.736;2023-03-30T16:12:26;15.23;;;3.97;;
59998;SDS011;45859;51.378;6.736;2023-03-30T16:14:53;17.30;;;4.20;;
59998;SDS011;45859;51.378;6.736;2023-03-30T16:17:19;14.93;;;4.30;;
59998;SDS011;45859;51.378;6.736;2023-03-30T16:19:45;13.20;;;3.70;;
59998;SDS011;45859;51.378;6.736;2023-03-30T16:22:11;9.13;;;3.40;;
59998;SDS011;45859;51.378;6.736;2023-03-30T16:24:38;9.20;;;2.40;;
59998;SDS011;45859;51.378;6.736;2023-03-30T16:27:05;6.03;;;1.73;;
59998;SDS011;45859;51.378;6.736;2023-03-30T16:29:31;9.40;;;2.73;;
59998;SDS011;45859;51.378;6.736;2023-03-30T16:31:57;8.73;;;2.80;;
59998;SDS011;45859;51.378;6.736;2023-03-30T16:34:23;11.70;;;4.20;;
59998;SDS011;45859;51.378;6.736;2023-03-30T16:36:49;14.00;;;3.63;;
59998;SDS011;45859;51.378;6.736;2023-03-30T16:41:52;11.43;;;3.13;;
59998;SDS011;45859;51.378;6.736;2023-03-30T16:44:19;5.53;;;1.90;;
59998;SDS011;45859;51.378;6.736;2023-03-30T16:46:47;9.23;;;2.03;;
59998;SDS011;45859;51.378;6.736;2023-03-30T16:49:14;11.07;;;3.17;;
59998;SDS011;45859;51.378;6.736;2023-03-30T16:51:41;12.67;;;3.20;;
59998;SDS011;45859;51.378;6.736;2023-03-30T16:54:07;15.50;;;5.60;;
59998;SDS011;45859;51.378;6.736;2023-03-30T16:56:33;12.27;;;4.07;;
59998;SDS011;45859;51.378;6.736;2023-03-30T16:58:59;13.00;;;4.70;;
59998;SDS011;45859;51.378;6.736;2023-03-30T17:01:25;11.03;;;4.07;;
59998;SDS011;45859;51.378;6.736;2023-03-30T17:03:55;7.65;;;3.25;;
59998;SDS011;45859;51.378;6.736;2023-03-30T17:06:21;6.53;;;2.17;;
59998;SDS011;45859;51.378;6.736;2023-03-30T17:08:47;6.77;;;2.13;;
59998;SDS011;45859;51.378;6.736;2023-03-30T17:11:13;8.93;;;2.90;;
59998;SDS011;45859;51.378;6.736;2023-03-30T17:13:40;9.20;;;2.70;;
59998;SDS011;45859;51.378;6.736;2023-03-30T17:16:06;12.03;;;3.53;;
59998;SDS011;45859;51.378;6.736;2023-03-30T17:18:32;14.97;;;6.80;;
59998;SDS011;45859;51.378;6.736;2023-03-30T17:20:59;22.43;;;8.53;;
59998;SDS011;45859;51.378;6.736;2023-03-30T17:23:26;16.53;;;9.07;;
59998;SDS011;45859;51.378;6.736;2023-03-30T17:25:54;12.47;;;6.77;;
59998;SDS011;45859;51.378;6.736;2023-03-30T17:28:22;16.40;;;6.83;;
59998;SDS011;45859;51.378;6.736;2023-03-30T17:30:50;15.23;;;7.50;;
59998;SDS011;45859;51.378;6.736;2023-03-30T17:33:17;13.40;;;6.33;;
59998;SDS011;45859;51.378;6.736;2023-03-30T17:35:45;15.60;;;7.00;;
59998;SDS011;45859;51.378;6.736;2023-03-30T17:38:20;11.63;;;6.03;;
59998;SDS011;45859;51.378;6.736;2023-03-30T17:40:45;14.10;;;5.73;;